• Join FlightAware (Why Join?)
  • Login
  • US Flag 
09:20PM EDT


 

Airport Tracker/Info


-or-


 

Live Flight TrackerFlight Track Log ✈ N830QS ✈ 11-Oct-2013 ✈ KUNV - KBDR

Flight Track Log - Related Links

Times and Time Zones

All times are in EDT time to prevent confusion due to time zone crossing. See the N830QS flight status page for this flight to view local times or setup timezone preferences in your user account.

Time Position Orientation Groundspeed Altitude Reporting Facility
EDT Latitude Longitude Course Direction KTS MPH feet Rate Location/Type
11:40AM 40.8067 -77.8750 32° Northeast 343 395 4,900  Level New York Center
11:41AM 40.8108 -77.8042 86° East 229 264 8,200 3,360 Climbing New York Center
11:42AM 40.8614 -77.7242 50° Northeast 193 222 11,700 3,600 Climbing New York Center
11:43AM 40.9161 -77.6447 48° Northeast 236 272 15,400 3,540 Climbing New York Center
11:44AM 40.9240 -76.9530 50° Northeast  Level Estimated
11:44AM 40.9683 -77.5675 48° Northeast 259 298 18,800  Level New York Center
11:45AM 41.0201 -76.8730 32° Northeast  Level FlightAware Approximate
11:45AM 41.0231 -77.4875 48° Northeast 278 320 21,000  Level New York Center
11:46AM 41.0892 -77.3867 49° Northeast 314 361 21,000  Level New York Center
11:47AM 41.1686 -77.2678 48° Northeast 371 427 21,000  Level New York Center
11:48AM 41.2369 -77.1611 50° Northeast 377 434 21,000  Level New York Center
11:49AM 41.3092 -77.0547 48° Northeast 388 447 21,000  Level New York Center
11:50AM 41.3725 -76.9611 48° Northeast 388 447 21,000  Level New York Center
11:51AM 41.4406 -76.8567 49° Northeast 388 447 21,000  Level New York Center
11:52AM 41.5128 -76.7467 49° Northeast 388 447 21,000  Level New York Center
11:53AM 41.5828 -76.6364 50° Northeast 388 447 21,000  Level New York Center
11:54AM 41.6547 -76.5261 49° Northeast 388 447 21,000  Level New York Center
11:55AM 41.7267 -76.4156 49° Northeast 388 447 21,000  Level New York Center
11:58AM 41.8978 -76.1500 49° Northeast 402 463 21,000  Level Boston Center
11:59AM 41.9681 -76.0397 49° Northeast 396 456 21,000  Level Boston Center
12:00PM 42.0361 -75.9261 51° Northeast 396 456 21,000  Level Boston Center
12:01PM 42.1147 -75.8072 48° Northeast 391 450 21,000  Level Boston Center
12:02PM 42.1869 -75.6906 50° Northeast 391 450 21,000  Level Boston Center
12:03PM 42.2569 -75.5764 50° Northeast 391 450 21,000 -420 Level Boston Center
12:04PM 42.3058 -75.4667 59° Northeast 385 443 20,200 -1,080 Descending Boston Center
12:05PM 42.2975 -75.3061 94° East 362 417 18,900 -1,200 Descending Boston Center
12:06PM 42.2800 -75.1650 99° East 359 413 17,800 -960 Descending Boston Center
12:07PM 42.2642 -75.0436 100° East 364 419 17,000 -420 Descending Boston Center
12:08PM 42.2483 -74.9111 99° East 369 425 17,000  Level Boston Center
12:09PM 42.2306 -74.7731 100° East 369 425 17,000  Level Boston Center
12:10PM 42.2167 -74.6350 98° East 369 425 17,000  Level Boston Center
12:11PM 42.1919 -74.5025 104° East 369 425 17,000  Level Boston Center
12:12PM 42.1403 -74.3636 117° Southeast 374 430 17,000 -60 Level Boston Center
12:13PM 42.0900 -74.2419 119° Southeast 381 438 16,900 -960 Descending Boston Center
12:14PM 42.0356 -74.1311 123° Southeast 362 417 15,200 -1,560 Descending Boston Center
12:15PM 41.9808 -74.0208 124° Southeast 356 410 13,800 -1,200 Descending Boston Center
12:16PM 41.9281 -73.9106 123° Southeast 356 410 12,800 -1,080 Descending Boston Center
12:17PM 41.8772 -73.8147 125° Southeast 338 389 11,700 -1,140 Descending Boston Center
12:18PM 41.8264 -73.7133 124° Southeast 333 383 10,600 -1,140 Descending Boston Center
12:19PM 41.7814 -73.6261 125° Southeast 308 354 9,500 -1,080 Descending Boston Center
12:20PM 41.7153 -73.5747 150° Southeast 279 321 8,500 -960 Descending Boston Center
12:21PM 41.6489 -73.5431 160° South 279 321 7,600 -1,200 Descending Boston Center
12:23PM 41.5000 -73.4500 155° Southeast 254 292 5,000 -1,200 Descending New York TRACON
12:24PM 41.4500 -73.4000 143° Southeast 252 290 4,000 -540 Descending New York TRACON
12:24PM 41.4000 -73.3500 143° Southeast 249 287 4,000 -240 Level New York TRACON
12:25PM 41.3167 -73.3500 180° South 256 295 3,600 -540 Descending New York TRACON
12:26PM 41.2500 -73.3333 169° South 258 297 3,000 -300 Descending New York TRACON
12:27PM 41.1833 -73.3500 191° South 262 302 3,000 -360 Level New York TRACON
12:28PM 41.1167 -73.3500 180° South 244 281 2,300 -540 Descending New York TRACON
12:29PM 41.0667 -73.3167 153° Southeast 198 228 2,000 -180 Descending New York TRACON
12:30PM 41.0667 -73.2667 90° East 160 184 2,000 -120 Level New York TRACON
12:31PM 41.1000 -73.2167 48° Northeast 151 174 1,800 -420 Descending New York TRACON
12:32PM 41.1167 -73.2000 37° Northeast 108 124 1,200 -600 Descending New York TRACON
12:33PM 41.1333 -73.1667 56° Northeast 106 122 700 -420 Descending New York TRACON
12:34PM 41.1500 -73.1333 56° Northeast 105 121 400 -300 Descending New York TRACON